createdAt,value
2022-11-19T00:01:26.362Z,8.23
2022-11-19T00:03:53.614Z,8.85
2022-11-19T00:06:25.675Z,5.90
2022-11-19T00:08:52.909Z,5.97
2022-11-19T00:11:46.650Z,4.63
2022-11-19T00:14:15.880Z,5.25
2022-11-19T00:16:44.122Z,7.35
2022-11-19T00:19:11.979Z,5.53
2022-11-19T00:21:38.926Z,5.75
2022-11-19T00:24:06.214Z,7.78
2022-11-19T00:26:32.954Z,6.22
2022-11-19T00:28:59.708Z,7.03
2022-11-19T00:31:26.483Z,8.88
2022-11-19T00:33:54.729Z,11.50
2022-11-19T00:36:22.483Z,6.28
2022-11-19T00:38:49.260Z,8.35
2022-11-19T00:41:16.144Z,8.75
2022-11-19T00:43:49.726Z,9.95
2022-11-19T00:46:19.682Z,5.93
2022-11-19T00:48:48.610Z,7.75
2022-11-19T00:51:16.690Z,5.97
2022-11-19T00:53:43.413Z,5.07
2022-11-19T00:56:12.529Z,6.63
2022-11-19T00:58:40.622Z,5.43
2022-11-19T01:01:08.564Z,7.57
2022-11-19T01:03:35.680Z,6.65
2022-11-19T01:06:02.456Z,8.52
2022-11-19T01:08:29.311Z,6.40
2022-11-19T01:10:56.164Z,8.07
2022-11-19T01:13:35.252Z,6.95
2022-11-19T01:16:07.092Z,9.13
2022-11-19T01:18:34.779Z,5.90
2022-11-19T01:21:01.922Z,7.45
2022-11-19T01:23:28.812Z,6.50
2022-11-19T01:25:55.621Z,7.72
2022-11-19T01:28:22.399Z,6.30
2022-11-19T01:30:49.231Z,4.55
2022-11-19T01:33:16.215Z,4.93
2022-11-19T01:35:43.126Z,3.85
2022-11-19T01:38:09.827Z,3.28
2022-11-19T01:40:44.438Z,6.88
2022-11-19T01:43:12.431Z,6.85
2022-11-19T01:45:41.130Z,3.97
2022-11-19T01:48:25.208Z,6.03
2022-11-19T01:50:58.941Z,3.90
2022-11-19T01:53:29.574Z,4.60
2022-11-19T01:55:59.673Z,5.40
2022-11-19T01:58:26.531Z,3.80
2022-11-19T02:00:53.305Z,3.33
2022-11-19T02:03:20.273Z,3.58
2022-11-19T02:05:47.859Z,5.40
2022-11-19T02:08:39.046Z,4.63
2022-11-19T02:11:30.687Z,3.90
2022-11-19T02:14:09.403Z,4.07
2022-11-19T02:16:50.987Z,2.53
2022-11-19T02:19:36.665Z,3.90
2022-11-19T02:22:32.615Z,4.45
2022-11-19T02:25:38.205Z,4.13
2022-11-19T02:28:44.651Z,3.55
2022-11-19T02:31:28.282Z,5.43
2022-11-19T02:34:19.145Z,3.80
2022-11-19T02:36:57.925Z,3.42
2022-11-19T02:39:39.827Z,3.67
2022-11-19T02:42:23.937Z,5.85
2022-11-19T02:45:14.654Z,4.47
2022-11-19T02:47:46.999Z,6.05
2022-11-19T02:50:19.573Z,4.72
2022-11-19T02:52:47.788Z,5.28
2022-11-19T02:55:17.007Z,6.60
2022-11-19T02:58:05.784Z,4.75
2022-11-19T03:01:00.853Z,5.75
2022-11-19T03:03:46.480Z,5.80
2022-11-19T03:06:17.666Z,8.45
2022-11-19T03:08:46.382Z,7.28
2022-11-19T03:11:13.108Z,4.90
2022-11-19T03:14:15.501Z,7.05
2022-11-19T03:17:21.483Z,4.60
2022-11-19T03:20:01.793Z,7.47
2022-11-19T03:22:45.876Z,7.15
2022-11-19T03:25:15.087Z,6.28
2022-11-19T03:27:48.088Z,5.75
2022-11-19T03:30:16.879Z,5.78
2022-11-19T03:32:52.032Z,6.55
2022-11-19T03:35:30.178Z,7.18
2022-11-19T03:38:03.279Z,8.77
2022-11-19T03:40:32.635Z,4.82
2022-11-19T03:43:02.160Z,6.15
2022-11-19T03:45:35.837Z,6.90
2022-11-19T03:48:04.825Z,7.00
2022-11-19T03:50:42.572Z,8.20
2022-11-19T03:53:09.743Z,9.70
2022-11-19T03:55:45.911Z,6.10
2022-11-19T03:58:13.166Z,7.82
2022-11-19T04:00:40.684Z,12.05
2022-11-19T04:03:07.451Z,7.50
2022-11-19T04:05:35.248Z,10.57
2022-11-19T04:08:02.051Z,7.57
2022-11-19T04:10:28.835Z,7.90
2022-11-19T04:12:55.555Z,5.57
2022-11-19T04:15:22.453Z,6.90
2022-11-19T04:17:49.192Z,7.03
2022-11-19T04:20:16.067Z,9.75
2022-11-19T04:22:42.894Z,7.35
2022-11-19T04:25:10.058Z,7.28
2022-11-19T04:27:36.851Z,5.35
2022-11-19T04:30:05.052Z,5.53
2022-11-19T04:32:31.934Z,6.03
2022-11-19T04:34:58.738Z,6.18
2022-11-19T04:37:25.882Z,11.50
2022-11-19T04:39:52.683Z,7.25
2022-11-19T04:42:19.411Z,6.47
2022-11-19T04:44:47.189Z,7.22
2022-11-19T04:47:13.967Z,5.30
2022-11-19T04:49:40.779Z,8.88
2022-11-19T04:52:07.483Z,7.03
2022-11-19T04:54:34.271Z,6.15
2022-11-19T04:57:02.168Z,7.03
2022-11-19T04:59:29.199Z,5.75
2022-11-19T05:01:56.012Z,5.35
2022-11-19T05:04:22.814Z,8.90
2022-11-19T05:06:49.569Z,9.38
2022-11-19T05:09:16.473Z,6.78
2022-11-19T05:11:43.440Z,7.78
2022-11-19T05:14:10.224Z,8.23
2022-11-19T05:16:37.127Z,3.65
2022-11-19T05:19:03.821Z,2.20
2022-11-19T05:21:30.586Z,3.22
2022-11-19T05:23:57.355Z,0.75
2022-11-19T05:26:24.178Z,1.05
2022-11-19T05:28:50.922Z,0.98
2022-11-19T05:31:17.646Z,1.30
2022-11-19T05:33:44.358Z,1.10
2022-11-19T05:36:11.059Z,1.23
2022-11-19T05:38:37.955Z,0.70
2022-11-19T05:41:04.738Z,1.55
2022-11-19T05:43:31.469Z,1.20
2022-11-19T05:46:02.227Z,1.08
2022-11-19T05:48:29.433Z,5.43
2022-11-19T05:50:56.689Z,1.27
2022-11-19T05:53:23.429Z,1.25
2022-11-19T05:55:52.157Z,2.70
2022-11-19T05:58:18.895Z,1.45
2022-11-19T06:00:45.826Z,1.55
2022-11-19T06:03:12.611Z,1.48
2022-11-19T06:05:40.749Z,1.40
2022-11-19T06:08:09.161Z,1.77
2022-11-19T06:10:37.013Z,2.50
2022-11-19T06:13:03.899Z,4.22
2022-11-19T06:15:30.577Z,3.25
2022-11-19T06:17:57.854Z,2.92
2022-11-19T06:20:24.732Z,2.55
2022-11-19T06:22:52.195Z,3.47
2022-11-19T06:25:19.618Z,3.40
2022-11-19T06:27:46.417Z,3.50
2022-11-19T06:30:13.937Z,3.10
2022-11-19T06:32:40.984Z,3.40
2022-11-19T06:35:08.359Z,4.00
2022-11-19T06:37:35.528Z,4.43
2022-11-19T06:40:04.507Z,4.50
2022-11-19T06:42:37.218Z,3.72
2022-11-19T06:45:07.162Z,4.90
2022-11-19T06:47:34.286Z,5.03
2022-11-19T06:50:02.532Z,4.90
2022-11-19T06:52:29.303Z,5.18
2022-11-19T06:54:56.386Z,5.47
2022-11-19T06:57:23.393Z,5.85
2022-11-19T06:59:50.160Z,5.43
2022-11-19T07:02:21.269Z,5.00
2022-11-19T07:04:48.474Z,5.80
2022-11-19T07:07:15.336Z,6.43
2022-11-19T07:09:42.113Z,5.18
2022-11-19T07:12:08.902Z,6.65
2022-11-19T07:14:36.072Z,6.32
2022-11-19T07:17:02.958Z,7.47
2022-11-19T07:19:30.246Z,6.53
2022-11-19T07:21:56.990Z,6.55
2022-11-19T07:24:23.766Z,9.40
2022-11-19T07:26:50.506Z,8.68
2022-11-19T07:29:17.824Z,7.50
2022-11-19T07:31:46.995Z,6.22
2022-11-19T07:34:13.704Z,7.57
2022-11-19T07:36:40.406Z,7.28
2022-11-19T07:39:07.383Z,7.97
2022-11-19T07:41:53.067Z,8.63
2022-11-19T07:44:21.275Z,7.57
2022-11-19T07:46:49.452Z,7.45
2022-11-19T07:49:16.361Z,6.30
2022-11-19T07:51:43.650Z,7.95
2022-11-19T07:54:14.731Z,8.18
2022-11-19T07:56:41.942Z,8.02
2022-11-19T07:59:08.802Z,8.02
2022-11-19T08:01:35.839Z,7.30
2022-11-19T08:04:05.551Z,7.03
2022-11-19T08:06:36.400Z,7.45
2022-11-19T08:09:04.498Z,7.80
2022-11-19T08:11:31.772Z,8.43
2022-11-19T08:14:03.336Z,8.60
2022-11-19T08:16:52.279Z,8.68
2022-11-19T08:19:19.717Z,8.82
2022-11-19T08:21:47.861Z,8.63
2022-11-19T08:24:16.701Z,9.63
2022-11-19T08:26:44.386Z,8.65
2022-11-19T08:29:16.460Z,9.63
2022-11-19T08:31:47.838Z,10.40
2022-11-19T08:34:15.693Z,11.23
2022-11-19T08:36:42.705Z,9.35
2022-11-19T08:39:10.005Z,8.80
2022-11-19T08:41:55.651Z,9.43
2022-11-19T08:44:23.544Z,8.90
2022-11-19T08:46:52.230Z,9.60
2022-11-19T08:49:19.358Z,8.93
2022-11-19T08:51:46.701Z,11.15
2022-11-19T08:54:13.869Z,9.98
2022-11-19T08:56:41.825Z,9.98
2022-11-19T08:59:09.384Z,8.75
2022-11-19T09:01:40.170Z,11.32
2022-11-19T09:04:09.416Z,9.77
2022-11-19T09:06:38.823Z,10.30
2022-11-19T09:09:08.127Z,9.80
2022-11-19T09:11:42.427Z,10.00
2022-11-19T09:14:11.724Z,10.18
2022-11-19T09:16:41.220Z,9.88
2022-11-19T09:19:08.602Z,10.10
2022-11-19T09:21:37.404Z,10.23
2022-11-19T09:24:06.085Z,10.18
2022-11-19T09:26:34.695Z,12.52
2022-11-19T09:29:03.218Z,11.02
2022-11-19T09:31:31.307Z,10.32
2022-11-19T09:33:58.874Z,11.23
2022-11-19T09:36:26.220Z,8.82
2022-11-19T09:38:59.457Z,10.07
2022-11-19T09:41:57.137Z,10.85
2022-11-19T09:44:44.632Z,9.80
2022-11-19T09:47:44.018Z,10.75
2022-11-19T09:50:25.902Z,11.93
2022-11-19T09:53:11.399Z,9.32
2022-11-19T09:55:56.291Z,10.20
2022-11-19T09:58:35.582Z,9.88
2022-11-19T10:01:05.516Z,9.52
2022-11-19T10:03:34.322Z,9.38
2022-11-19T10:06:12.329Z,10.50
2022-11-19T10:08:51.363Z,8.57
2022-11-19T10:11:41.576Z,9.00
2022-11-19T10:14:54.302Z,8.63
2022-11-19T10:17:45.973Z,8.85
2022-11-19T10:20:25.810Z,8.38
2022-11-19T10:23:03.724Z,9.27
2022-11-19T10:25:48.096Z,9.95
2022-11-19T10:30:56.603Z,11.15
2022-11-19T10:33:35.199Z,10.45
2022-11-19T10:36:09.787Z,9.45
2022-11-19T10:39:17.258Z,11.07
2022-11-19T10:42:12.247Z,11.27
2022-11-19T10:44:52.580Z,13.40
2022-11-19T10:47:48.502Z,11.18
2022-11-19T10:50:34.129Z,10.98
2022-11-19T10:53:13.298Z,14.45
2022-11-19T10:55:54.026Z,12.35
2022-11-19T10:58:25.742Z,13.90
2022-11-19T11:03:53.174Z,10.80
2022-11-19T11:06:27.128Z,9.20
2022-11-19T11:08:56.709Z,11.25
2022-11-19T11:11:53.517Z,9.68
2022-11-19T11:14:42.130Z,10.23
2022-11-19T11:17:24.626Z,10.23
2022-11-19T11:20:10.399Z,9.55
2022-11-19T11:22:41.951Z,8.90
2022-11-19T11:25:28.546Z,10.23
2022-11-19T11:28:18.201Z,9.48
2022-11-19T11:31:10.743Z,13.88
2022-11-19T11:33:42.355Z,11.18
2022-11-19T11:36:22.739Z,16.30
2022-11-19T11:38:52.632Z,12.50
2022-11-19T11:44:15.887Z,12.80
2022-11-19T11:46:42.809Z,10.85
2022-11-19T11:49:29.388Z,11.40
2022-11-19T11:52:11.263Z,9.90
2022-11-19T11:54:59.709Z,12.05
2022-11-19T11:57:50.473Z,11.48
2022-11-19T12:00:48.104Z,11.00
2022-11-19T12:03:20.520Z,11.07
2022-11-19T12:06:10.915Z,9.77
2022-11-19T12:08:52.388Z,11.93
2022-11-19T12:11:56.580Z,10.57
2022-11-19T12:14:38.616Z,10.03
2022-11-19T12:17:18.517Z,9.68
2022-11-19T12:20:22.941Z,10.02
2022-11-19T12:23:27.274Z,10.90
2022-11-19T12:26:41.310Z,15.35
2022-11-19T12:29:18.103Z,12.40
2022-11-19T12:32:03.329Z,13.80
2022-11-19T12:35:02.679Z,12.60
2022-11-19T12:37:42.454Z,13.30
2022-11-19T12:40:40.945Z,14.43
2022-11-19T12:43:08.810Z,14.48
2022-11-19T12:46:18.155Z,14.02
2022-11-19T12:49:09.290Z,12.90
2022-11-19T12:51:52.539Z,13.43
2022-11-19T12:54:40.633Z,14.07
2022-11-19T12:57:35.332Z,15.25
2022-11-19T13:00:21.670Z,16.15
2022-11-19T13:03:21.592Z,15.00
2022-11-19T13:05:56.883Z,14.98
2022-11-19T13:09:00.603Z,10.40
2022-11-19T13:11:36.656Z,12.43
2022-11-19T13:15:06.781Z,11.98
2022-11-19T13:17:47.249Z,13.07
2022-11-19T13:20:32.839Z,14.15
2022-11-19T13:23:05.302Z,13.90
2022-11-19T13:25:57.941Z,12.98
2022-11-19T13:28:43.491Z,13.20
2022-11-19T13:31:40.590Z,12.73
2022-11-19T13:34:20.776Z,11.98
2022-11-19T13:36:57.421Z,12.15
2022-11-19T13:39:32.787Z,13.45
2022-11-19T13:42:21.480Z,14.90
2022-11-19T13:44:48.667Z,13.20
2022-11-19T13:47:31.035Z,11.90
2022-11-19T13:50:06.438Z,14.30
2022-11-19T13:52:55.237Z,13.52
2022-11-19T13:55:38.068Z,14.00
2022-11-19T13:58:13.936Z,16.75
2022-11-19T14:00:44.063Z,16.08
2022-11-19T14:03:41.574Z,17.42
2022-11-19T14:06:12.251Z,12.70
2022-11-19T14:09:12.772Z,13.57
2022-11-19T14:12:36.720Z,13.30
2022-11-19T14:15:49.474Z,12.82
2022-11-19T14:18:54.316Z,12.75
2022-11-19T14:21:43.982Z,13.07
2022-11-19T14:24:44.813Z,15.52
2022-11-19T14:27:27.522Z,18.85
2022-11-19T14:30:00.479Z,16.58
2022-11-19T14:32:46.574Z,15.02
2022-11-19T14:35:35.318Z,17.05
2022-11-19T14:38:33.409Z,17.60
2022-11-19T14:41:13.786Z,16.08
2022-11-19T14:44:11.884Z,19.00
2022-11-19T14:46:49.140Z,14.88
2022-11-19T14:49:38.571Z,16.77
2022-11-19T14:52:19.236Z,16.27
2022-11-19T14:54:52.768Z,22.63
2022-11-19T14:57:29.403Z,15.23
2022-11-19T15:00:04.196Z,16.98
2022-11-19T15:02:39.861Z,18.15
2022-11-19T15:05:13.186Z,19.00
2022-11-19T15:07:54.323Z,22.38
2022-11-19T15:10:33.325Z,19.60
2022-11-19T15:13:21.319Z,21.80
2022-11-19T15:15:52.209Z,18.90
2022-11-19T15:18:28.431Z,19.75
2022-11-19T15:21:32.196Z,19.95
2022-11-19T15:24:28.128Z,16.25
2022-11-19T15:27:20.032Z,18.60
2022-11-19T15:30:20.489Z,14.93
2022-11-19T15:33:11.023Z,18.35
2022-11-19T15:36:05.474Z,19.52
2022-11-19T15:38:43.382Z,23.45
2022-11-19T15:41:17.063Z,20.42
2022-11-19T15:43:49.450Z,22.38
2022-11-19T15:46:38.026Z,20.85
2022-11-19T15:49:11.081Z,21.40
2022-11-19T15:52:06.201Z,25.08
2022-11-19T15:54:35.496Z,23.65
2022-11-19T15:57:16.479Z,24.42
2022-11-19T15:59:48.538Z,24.00
2022-11-19T16:02:41.033Z,29.83
2022-11-19T16:05:30.165Z,24.60
2022-11-19T16:14:49.819Z,21.90
2022-11-19T16:17:43.499Z,19.80
2022-11-19T16:20:21.395Z,20.58
2022-11-19T16:23:08.292Z,23.52
2022-11-19T16:25:41.460Z,31.30
2022-11-19T16:28:18.662Z,22.05
2022-11-19T16:30:53.976Z,27.05
2022-11-19T16:33:28.254Z,23.20
2022-11-19T16:36:19.357Z,24.65
2022-11-19T16:38:49.881Z,25.52
2022-11-19T16:41:46.638Z,24.63
2022-11-19T16:44:18.773Z,23.67
2022-11-19T16:46:46.360Z,24.85
2022-11-19T16:49:52.942Z,26.20
2022-11-19T16:52:36.790Z,28.60
2022-11-19T16:55:17.661Z,25.52
2022-11-19T16:57:53.707Z,24.60
2022-11-19T17:00:23.612Z,31.55
2022-11-19T17:02:51.517Z,25.33
2022-11-19T17:05:25.133Z,27.70
2022-11-19T17:07:53.693Z,28.52
2022-11-19T17:10:30.606Z,29.55
2022-11-19T17:13:28.437Z,27.30
2022-11-19T17:16:17.275Z,25.25
2022-11-19T17:18:44.749Z,26.92
2022-11-19T17:21:30.539Z,26.50
2022-11-19T17:23:58.349Z,25.42
2022-11-19T17:26:27.529Z,30.73
2022-11-19T17:29:22.828Z,26.75
2022-11-19T17:31:52.957Z,27.35
2022-11-19T17:34:34.969Z,29.65
2022-11-19T17:37:02.836Z,28.30
2022-11-19T17:39:29.630Z,28.77
2022-11-19T17:42:15.893Z,26.27
2022-11-19T17:44:43.042Z,26.80
2022-11-19T17:47:21.378Z,31.50
2022-11-19T17:49:51.538Z,29.85
2022-11-19T17:52:24.221Z,32.70
2022-11-19T17:54:54.197Z,30.90
2022-11-19T17:57:23.853Z,27.83
2022-11-19T17:59:51.466Z,31.55
2022-11-19T18:02:20.433Z,30.13
2022-11-19T18:04:49.715Z,36.88
2022-11-19T18:07:18.750Z,31.83
2022-11-19T18:09:45.880Z,30.58
2022-11-19T18:12:18.379Z,35.55
2022-11-19T18:14:47.703Z,33.88
2022-11-19T18:17:16.521Z,36.97
2022-11-19T18:19:43.504Z,32.53
2022-11-19T18:22:19.963Z,32.60
2022-11-19T18:24:49.264Z,36.97
2022-11-19T18:27:16.960Z,32.92
2022-11-19T18:29:45.113Z,34.13
2022-11-19T18:32:12.435Z,31.83
2022-11-19T18:34:39.345Z,32.13
2022-11-19T18:37:07.370Z,34.58
2022-11-19T18:39:35.662Z,30.40
2022-11-19T18:42:02.411Z,33.38
2022-11-19T18:44:35.331Z,30.20
2022-11-19T18:47:04.892Z,38.65
2022-11-19T18:49:33.617Z,33.88
2022-11-19T18:52:02.465Z,32.42
2022-11-19T18:54:29.299Z,33.88
2022-11-19T18:56:57.309Z,33.00
2022-11-19T18:59:24.718Z,31.17
2022-11-19T19:01:52.484Z,32.38
2022-11-19T19:04:22.248Z,31.67
2022-11-19T19:06:49.299Z,29.73
2022-11-19T19:09:20.623Z,32.17
2022-11-19T19:12:12.567Z,34.72
2022-11-19T19:14:40.026Z,29.92
2022-11-19T19:17:06.768Z,30.30
2022-11-19T19:19:34.466Z,30.60
2022-11-19T19:22:01.570Z,29.58
2022-11-19T19:24:28.337Z,34.17
2022-11-19T19:26:55.064Z,31.58
2022-11-19T19:29:22.424Z,29.45
2022-11-19T19:31:49.344Z,31.55
2022-11-19T19:34:17.061Z,34.45
2022-11-19T19:36:51.640Z,34.25
2022-11-19T19:39:20.342Z,34.35
2022-11-19T19:41:47.565Z,33.42
2022-11-19T19:44:14.357Z,37.30
2022-11-19T19:46:41.115Z,36.10
2022-11-19T19:49:08.403Z,33.28
2022-11-19T19:51:35.128Z,35.53
2022-11-19T19:54:03.418Z,36.70
2022-11-19T19:56:33.420Z,36.85
2022-11-19T19:59:01.310Z,34.38
2022-11-19T20:01:30.912Z,29.98
2022-11-19T20:04:08.512Z,31.80
2022-11-19T20:06:37.111Z,30.27
2022-11-19T20:09:09.181Z,32.58
2022-11-19T20:11:37.114Z,33.10
2022-11-19T20:14:07.385Z,38.15
2022-11-19T20:16:36.826Z,32.17
2022-11-19T20:19:05.480Z,43.08
2022-11-19T20:21:34.259Z,30.58
2022-11-19T20:24:03.960Z,29.52
2022-11-19T20:26:33.115Z,29.55
2022-11-19T20:29:02.101Z,31.50
2022-11-19T20:31:30.593Z,33.63
2022-11-19T20:33:59.562Z,33.28
2022-11-19T20:36:28.788Z,29.77
2022-11-19T20:38:57.511Z,33.35
2022-11-19T20:41:43.403Z,30.45
2022-11-19T20:44:23.228Z,34.05
2022-11-19T20:46:57.105Z,33.15
2022-11-19T20:49:29.303Z,40.70
2022-11-19T20:51:58.207Z,31.02
2022-11-19T20:54:26.058Z,32.13
2022-11-19T20:56:54.313Z,35.15
2022-11-19T20:59:22.465Z,32.53
2022-11-19T21:01:50.564Z,31.77
2022-11-19T21:04:18.208Z,33.72
2022-11-19T21:06:45.136Z,34.35
2022-11-19T21:09:15.919Z,34.13
2022-11-19T21:11:43.743Z,35.05
2022-11-19T21:14:10.567Z,33.17
2022-11-19T21:16:38.800Z,34.08
2022-11-19T21:19:05.693Z,35.95
2022-11-19T21:21:34.198Z,35.45
2022-11-19T21:24:05.555Z,36.30
2022-11-19T21:26:32.495Z,34.95
2022-11-19T21:29:00.156Z,33.05
2022-11-19T21:31:39.251Z,38.05
2022-11-19T21:34:11.532Z,34.05
2022-11-19T21:36:39.444Z,32.78
2022-11-19T21:39:07.122Z,37.90
2022-11-19T21:41:34.372Z,34.92
2022-11-19T21:44:02.065Z,42.00
2022-11-19T21:46:28.937Z,41.20
2022-11-19T21:48:55.862Z,35.72
2022-11-19T21:51:25.242Z,38.50
2022-11-19T21:53:56.706Z,36.58
2022-11-19T21:56:25.025Z,32.13
2022-11-19T21:58:51.875Z,35.53
2022-11-19T22:01:18.926Z,41.70
2022-11-19T22:03:46.111Z,34.33
2022-11-19T22:06:13.048Z,37.45
2022-11-19T22:08:41.476Z,34.30
2022-11-19T22:11:42.651Z,36.13
2022-11-19T22:14:09.943Z,36.83
2022-11-19T22:16:38.875Z,33.47
2022-11-19T22:19:06.429Z,36.40
2022-11-19T22:21:35.218Z,33.03
2022-11-19T22:24:04.028Z,37.80
2022-11-19T22:26:31.885Z,35.85
2022-11-19T22:28:58.743Z,37.03
2022-11-19T22:31:26.065Z,39.47
2022-11-19T22:33:56.818Z,36.13
2022-11-19T22:36:23.799Z,35.70
2022-11-19T22:38:52.671Z,35.88
2022-11-19T22:41:21.036Z,33.08
2022-11-19T22:43:48.120Z,36.25
2022-11-19T22:46:16.683Z,33.35
2022-11-19T22:48:43.672Z,39.40
2022-11-19T22:51:16.662Z,34.53
2022-11-19T22:53:43.874Z,36.42
2022-11-19T22:56:12.853Z,37.50
2022-11-19T22:58:40.126Z,35.88
2022-11-19T23:01:12.805Z,35.33
2022-11-19T23:03:39.589Z,40.92
2022-11-19T23:06:06.571Z,34.20
2022-11-19T23:08:33.288Z,38.97
2022-11-19T23:11:02.165Z,36.80
2022-11-19T23:13:34.358Z,37.10
2022-11-19T23:16:14.267Z,39.22
2022-11-19T23:18:53.098Z,39.53
2022-11-19T23:21:28.614Z,39.90
2022-11-19T23:23:56.411Z,41.47
2022-11-19T23:26:25.505Z,39.15
2022-11-19T23:28:53.148Z,35.80
2022-11-19T23:31:34.253Z,38.67
2022-11-19T23:34:01.220Z,41.67
2022-11-19T23:36:36.449Z,38.83
2022-11-19T23:39:05.414Z,41.25
2022-11-19T23:41:33.727Z,40.75
2022-11-19T23:44:01.064Z,41.78
2022-11-19T23:46:33.570Z,38.10
2022-11-19T23:49:01.756Z,37.63
2022-11-19T23:51:37.655Z,44.78
2022-11-19T23:54:06.746Z,40.80
2022-11-19T23:56:38.552Z,40.35
2022-11-19T23:59:06.132Z,39.15
